Flight Track Log - Related Links

Times and Time Zones

All times are in EDT time to prevent confusion due to time zone crossing. See the SKW7367 flight status page for this flight to view local times or setup timezone preferences in your user account.

Time Position Orientation Groundspeed Altitude Reporting Facility
EDT Latitude Longitude Course Direction KTS km/h feet Rate Location/Type
Fri 04:12:19 PM 42.2106 -83.3650 340° North 151 280 1.400  Level Cleveland Center
Fri 04:13:33 PM 42.1589 -83.4336 225° Southwest 261 483 4.000 2.213 Climbing Cleveland Center
Fri 04:14:21 PM 42.1181 -83.4867 224° Southwest 268 496 5.900 2.903 Climbing Cleveland Center
Fri 04:14:35 PM 42.1025 -83.5128 231° Southwest 289 536 7.000 3.097 Climbing Cleveland Center
Fri 04:15:00 PM 42.5272 -83.3752 North  Level Estimated
Fri 04:15:23 PM 42.0814 -83.5875 249° West 286 529 9.100  Level Cleveland Center
Fri 04:15:30 PM 42.0850 -83.6006 290° West 290 538 9.400 871 Climbing Cleveland Center
Fri 04:16:00 PM 42.6321 -83.3825 North  Level Estimated
Fri 04:16:25 PM 42.1169 -83.6861 297° West 309 573 10.000  Level Cleveland Center
Fri 04:16:44 PM 42.1439 -83.6992 340° North 309 573 10.100 1.143 Climbing Cleveland Center
Fri 04:17:00 PM 42.7370 -83.3898 340° North  Level Estimated
Fri 04:17:28 PM 42.2006 -83.7131 350° North 310 575 11.200  Level Cleveland Center
Fri 04:17:45 PM 42.2300 -83.7231 346° North 323 599 11.700 1.742 Climbing Cleveland Center
Fri 04:18:30 PM 42.2914 -83.7175 North 342 634 13.000 1.393 Climbing Cleveland Center
Fri 04:18:41 PM 42.3111 -83.7067 22° Northeast 333 616 13.000  Level Cleveland Center
Fri 04:19:32 PM 42.3783 -83.6658 24° Northeast 338 626 13.000 425 Level Cleveland Center
Fri 04:20:34 PM 42.4669 -83.6164 22° Northeast 340 629 13.800 968 Climbing Cleveland Center
Fri 04:21:36 PM 42.5544 -83.5669 23° Northeast 338 626 15.000 581 Climbing Cleveland Center
Fri 04:22:38 PM 42.6431 -83.5156 23° Northeast 343 636 15.000  Level Cleveland Center
Fri 04:23:40 PM 42.7331 -83.4644 23° Northeast 347 642 15.000  Level Cleveland Center
Fri 04:24:42 PM 42.8372 -83.4061 22° Northeast 339 628 15.000  Level Cleveland Center
Fri 04:25:44 PM 42.9153 -83.3661 21° North 302 560 15.000  Level Cleveland Center
Fri 04:26:46 PM 43.0006 -83.3678 359° North 306 566 15.000  Level Cleveland Center
Fri 04:27:48 PM 43.0825 -83.3814 353° North 303 562 15.000  Level Cleveland Center
Fri 04:28:50 PM 43.1419 -83.4681 313° West 311 576 15.000  Level Cleveland Center
Fri 04:29:52 PM 43.2097 -83.5756 311° West 312 578 15.000  Level Cleveland Center
Fri 04:30:55 PM 43.2678 -83.6600 313° West 305 565 15.000  Level Cleveland Center
Fri 04:31:57 PM 43.3256 -83.7517 311° West 314 581 15.000  Level Cleveland Center
Fri 04:32:59 PM 43.3836 -83.8411 312° West 314 581 15.000  Level Cleveland Center
Fri 04:34:01 PM 43.4419 -83.9319 312° West 317 587 15.000  Level Cleveland Center
Fri 04:35:03 PM 43.5019 -84.0272 311° West 314 581 15.000 48 Level Cleveland Center
Fri 04:36:05 PM 43.5806 -84.0600 343° North 316 586 15.100  Climbing Cleveland Center
Fri 04:37:07 PM 43.6822 -84.0258 14° North 314 581 15.000 -44 Descending Cleveland Center
Fri 04:38:21 PM 43.7842 -83.9939 13° North 316 586 15.000  Level Minneapolis Center
Fri 04:39:23 PM 43.8700 -83.9656 13° North 316 586 15.000  Level Minneapolis Center
Fri 04:40:25 PM 43.9597 -83.9350 14° North 317 587 15.000  Level Minneapolis Center
Fri 04:41:27 PM 44.0517 -83.9050 13° North 318 589 15.000  Level Minneapolis Center
Fri 04:42:29 PM 44.1431 -83.8750 13° North 314 581 15.000  Level Minneapolis Center
Fri 04:43:31 PM 44.2283 -83.8450 14° North 319 591 15.000  Level Minneapolis Center
Fri 04:44:33 PM 44.3192 -83.8153 13° North 316 586 15.000  Level Minneapolis Center
Fri 04:45:35 PM 44.4047 -83.7869 13° North 318 589 15.000  Level Minneapolis Center
Fri 04:46:38 PM 44.4958 -83.7561 14° North 316 586 15.000 -384 Level Minneapolis Center
Fri 04:47:40 PM 44.5811 -83.7275 13° North 318 589 14.200 -1.403 Descending Minneapolis Center
Fri 04:48:42 PM 44.6700 -83.6975 13° North 310 575 12.100 -2.032 Descending Minneapolis Center
Fri 04:49:44 PM 44.7486 -83.6708 14° North 297 550 10.000 -2.032 Descending Minneapolis Center
Fri 04:50:46 PM 44.8336 -83.6417 14° North 294 544 7.900 -1.935 Descending Minneapolis Center
Fri 04:51:48 PM 44.9083 -83.6164 13° North 286 529 6.000 -1.887 Descending Minneapolis Center
Fri 04:52:50 PM 44.9886 -83.6028 North 278 515 4.000 -1.210 Descending Minneapolis Center
Fri 04:53:52 PM 45.0550 -83.6267 346° North 250 463 3.500 -242 Descending Minneapolis Center
Fri 04:54:54 PM 45.1231 -83.6492 347° North 231 428 3.500 -48 Level Minneapolis Center
Fri 04:55:56 PM 45.1814 -83.6475 North 219 406 3.400 -435 Descending Minneapolis Center
Fri 04:56:58 PM 45.1844 -83.5767 86° East 172 319 2.600 -774 Descending Minneapolis Center
Fri 04:58:00 PM 45.1481 -83.5617 164° South 142 262 1.800 -677 Descending Minneapolis Center
Fri 04:59:02 PM 45.1097 -83.5614 180° South 129 238 1.200 -476 Descending Minneapolis Center
Fri 05:00:06 PM 45.0781 -83.5603 179° South 129 238 800 -375 Descending Minneapolis Center

Login

Don't have an account? Register now (free) for customized features, flight alerts, and more!